EGPFEGAE

Guest
Details From EGPF - Glasgow
To EGAE - Londonderry Eglinton
Flight Number -
Tags decoded
Created
Modified
Stats Distance 124 nm / 230 km
Max Altitude 0 ft / 0 m
Waypoints 5
Social Downloads 2
Likes 0
Share VATSIM

Download

Looking for another format? Having issues loading an existing format? Contact us
Advertisement - Login to hide

Notes

Requested: EGPF NORBO L186 TRN N562 MAC EGAE Unmatched points: L186 N562

Route

EGPF NORBO TRN MAC EGAE

ID Type Via Altitude Latitude Longitude Leg Dist Tot Dist Heading (true) Name
O EGPF APT - 0 ft / 0 m 55.87173˚ -4.43365˚ - 0 nm - Glasgow
NORBO FIX - 0 ft / 0 m 55.59583˚ -4.76194˚ 19 nm 19 nm 214° / 214° -
TRN VOR - 0 ft / 0 m 55.31333˚ -4.78389˚ 16 nm 36 nm 183° / 183° TURNBERRY VOR-DME
MAC VOR - 0 ft / 0 m 55.43000˚ -5.65028˚ 30 nm 67 nm 284° / 283° MACHRIHANISH VOR-DME
O EGAE APT - 0 ft / 0 m 55.04281˚ -7.16119˚ 56 nm 124 nm 246° / 245° Londonderry Eglinton

Altitude Profile

Advertisement - Login to hide

EGPF

Details ICAO EGPF (GLA)
Name Glasgow
Region United Kingdom
Timezone Europe/London (UTC+1.0)
Stats Elevation 26 ft / 8 m (AMSL)
Location 55.871728° -4.433648°
Runways 1
Magnetic Variation 2.656° W

METAR

EGPF 231520Z AUTO 07009KT 030V100 9999 NCD 17/09 Q1027

Decode

TAF

TAF TAF EGPF 231054Z 2312/2412 07009KT 9999 SCT020 TEMPO 2320/2409 BKN012 PROB40 TEMPO 2321/2409 5000 BR BKN005

Decode

Departure Runways

ID Width Length Bearing (true) Bearing (mag) Surface Threshold Offset Overrun Length
05 151 ft / 46 m 8,721 ft / 2,658 m 46.34° 49.00° Asphalt 0 ft / 0 m 499 ft / 152 m
23 151 ft / 46 m 8,721 ft / 2,658 m 226.37° 229.03° Asphalt 1,004 ft / 306 m 0 ft / 0 m

EGAE

Details ICAO EGAE (LDY)
Name Londonderry Eglinton
Region United Kingdom
Timezone Europe/London (UTC+1.0)
Stats Elevation 22 ft / 7 m (AMSL)
Location 55.042812° -7.161188°
Runways 1
Magnetic Variation 3.634° W

METAR

EGAE 231520Z 11009KT 9999 FEW035 20/10 Q1024

Decode

TAF

Not found

Destination Runways

ID Width Length Bearing (true) Bearing (mag) Surface Threshold Offset Overrun Length
08 148 ft / 45 m 6,058 ft / 1,846 m 73.07° 76.70° Asphalt 407 ft / 124 m 0 ft / 0 m
26 148 ft / 45 m 6,058 ft / 1,846 m 253.09° 256.72° Asphalt 0 ft / 0 m 0 ft / 0 m

Approach Navaids

Runway Type Ident Frequency Range Bearing (true) Bearing (mag) Slope Elevation
26 Localiser IEGT 108.30 MHz 18 nm / 33 km 253.08° 256.72° - 22 ft / 7 m (AMSL)
26 Glidescope IEGT 108.30 MHz 10 nm / 19 km 253.08° 256.72° 3.00° 22 ft / 7 m (AMSL)
26 DME IEGT 108.30 MHz 18 nm / 33 km - - - 28 ft / 9 m (AMSL)

Popular Alternatives